logo
Search for airport 
image banner adimage banner adimage banner ad
image banner ad

EDMOR - Morschenich

Located in , Germany

ICAO - ED1447, IATA -

Data provided by Airmate  

General information

Coordinates: N50°52'24" E6°33'9"
Elevation is 348 feet MSL.
 
View others Airports in North Rhine-Westphalia

Operational data

Special qualification required
Current time UTC:
Current local time:
Weather at : ETNN - Noervenich ( 9 km )
METAR: ETNN 141720Z 25007KT 9999 FEW050 BKN160 22/11 Q1012 BLACKBLU
View NOTAMs / SUP AIP / TFR affecting this airport [VIEW]
Communications frequencies: [VIEW]

Runways:

RWY identifierQFULength (ft)Width (ft)SurfaceLDA (ft)
0771°114866GRASS
25251°114866GRASS

Airport contact information

Address: Germany

Satellite view of EDMOR